RJNS(METAR)
03/24 21:00
METAR RJNS 241200Z 27018G28KT 9999 FEW030 07/M06 Q1016 RMK 1CU030
A3002=
戻る
トップページへ戻る
IMOC Co,.Ltd.